sensor_id;sensor_type;location;lat;lon;timestamp;pressure;altitude;pressure_sealevel;temperature
58102;BMP280;52034;51.926;6.320;2024-01-15T00:00:03;100094.34;;;2.97
58102;BMP280;52034;51.926;6.320;2024-01-15T00:01:10;100094.09;;;2.93
58102;BMP280;52034;51.926;6.320;2024-01-15T00:02:12;100076.53;;;2.88
58102;BMP280;52034;51.926;6.320;2024-01-15T00:03:14;100082.28;;;2.92
58102;BMP280;52034;51.926;6.320;2024-01-15T00:04:15;100081.53;;;2.92
58102;BMP280;52034;51.926;6.320;2024-01-15T00:05:17;100079.31;;;2.88
58102;BMP280;52034;51.926;6.320;2024-01-15T00:06:19;100067.84;;;2.82
58102;BMP280;52034;51.926;6.320;2024-01-15T00:07:20;100072.31;;;2.88
58102;BMP280;52034;51.926;6.320;2024-01-15T00:08:22;100070.50;;;2.80
58102;BMP280;52034;51.926;6.320;2024-01-15T00:09:24;100067.63;;;2.78
58102;BMP280;52034;51.926;6.320;2024-01-15T00:10:25;100071.81;;;2.79
58102;BMP280;52034;51.926;6.320;2024-01-15T00:11:27;100064.94;;;2.80
58102;BMP280;52034;51.926;6.320;2024-01-15T00:12:28;100067.00;;;2.80
58102;BMP280;52034;51.926;6.320;2024-01-15T00:13:30;100071.00;;;2.77
58102;BMP280;52034;51.926;6.320;2024-01-15T00:14:31;100058.22;;;2.72
58102;BMP280;52034;51.926;6.320;2024-01-15T00:15:33;100066.03;;;2.75
58102;BMP280;52034;51.926;6.320;2024-01-15T00:16:35;100064.63;;;2.74
58102;BMP280;52034;51.926;6.320;2024-01-15T00:17:36;100065.09;;;2.71
58102;BMP280;52034;51.926;6.320;2024-01-15T00:18:38;100065.81;;;2.71
58102;BMP280;52034;51.926;6.320;2024-01-15T00:19:40;100054.00;;;2.71
58102;BMP280;52034;51.926;6.320;2024-01-15T00:20:42;100048.09;;;2.65
58102;BMP280;52034;51.926;6.320;2024-01-15T00:21:44;100052.28;;;2.66
58102;BMP280;52034;51.926;6.320;2024-01-15T00:22:46;100051.34;;;2.61
58102;BMP280;52034;51.926;6.320;2024-01-15T00:23:47;100053.50;;;2.63
58102;BMP280;52034;51.926;6.320;2024-01-15T00:24:49;100045.19;;;2.63
58102;BMP280;52034;51.926;6.320;2024-01-15T00:25:51;100044.34;;;2.60
58102;BMP280;52034;51.926;6.320;2024-01-15T00:26:52;100048.47;;;2.59
58102;BMP280;52034;51.926;6.320;2024-01-15T00:27:55;100052.78;;;2.62
58102;BMP280;52034;51.926;6.320;2024-01-15T00:28:56;100044.47;;;2.62
58102;BMP280;52034;51.926;6.320;2024-01-15T00:29:58;100045.81;;;2.61
58102;BMP280;52034;51.926;6.320;2024-01-15T00:30:59;100042.31;;;2.61
58102;BMP280;52034;51.926;6.320;2024-01-15T00:32:01;100048.69;;;2.63
58102;BMP280;52034;51.926;6.320;2024-01-15T00:33:03;100041.56;;;2.60
58102;BMP280;52034;51.926;6.320;2024-01-15T00:34:05;100039.81;;;2.53
58102;BMP280;52034;51.926;6.320;2024-01-15T00:35:07;100046.78;;;2.54
58102;BMP280;52034;51.926;6.320;2024-01-15T00:36:09;100034.13;;;2.51
58102;BMP280;52034;51.926;6.320;2024-01-15T00:37:10;100047.38;;;2.53
58102;BMP280;52034;51.926;6.320;2024-01-15T00:38:12;100040.16;;;2.48
58102;BMP280;52034;51.926;6.320;2024-01-15T00:39:14;100032.59;;;2.48
58102;BMP280;52034;51.926;6.320;2024-01-15T00:40:15;100038.00;;;2.46
58102;BMP280;52034;51.926;6.320;2024-01-15T00:41:17;100038.59;;;2.45
58102;BMP280;52034;51.926;6.320;2024-01-15T00:42:19;100027.28;;;2.41
58102;BMP280;52034;51.926;6.320;2024-01-15T00:43:21;100031.72;;;2.46
58102;BMP280;52034;51.926;6.320;2024-01-15T00:44:22;100031.47;;;2.42
58102;BMP280;52034;51.926;6.320;2024-01-15T00:45:24;100035.81;;;2.45
58102;BMP280;52034;51.926;6.320;2024-01-15T00:46:26;100032.31;;;2.44
58102;BMP280;52034;51.926;6.320;2024-01-15T00:47:27;100033.41;;;2.39
58102;BMP280;52034;51.926;6.320;2024-01-15T00:48:29;100029.81;;;2.37
58102;BMP280;52034;51.926;6.320;2024-01-15T00:49:31;100030.41;;;2.35
58102;BMP280;52034;51.926;6.320;2024-01-15T00:50:33;100028.25;;;2.34
58102;BMP280;52034;51.926;6.320;2024-01-15T00:51:34;100033.88;;;2.36
58102;BMP280;52034;51.926;6.320;2024-01-15T00:52:36;100025.19;;;2.30
58102;BMP280;52034;51.926;6.320;2024-01-15T00:53:37;100030.50;;;2.37
58102;BMP280;52034;51.926;6.320;2024-01-15T00:54:39;100029.19;;;2.38
58102;BMP280;52034;51.926;6.320;2024-01-15T00:55:41;100016.06;;;2.39
58102;BMP280;52034;51.926;6.320;2024-01-15T00:56:43;100022.81;;;2.36
58102;BMP280;52034;51.926;6.320;2024-01-15T00:57:44;100011.72;;;2.36
58102;BMP280;52034;51.926;6.320;2024-01-15T00:58:46;100017.63;;;2.42
58102;BMP280;52034;51.926;6.320;2024-01-15T00:59:48;100017.63;;;2.42
58102;BMP280;52034;51.926;6.320;2024-01-15T01:00:49;100018.47;;;2.44
58102;BMP280;52034;51.926;6.320;2024-01-15T01:01:51;100017.03;;;2.43
58102;BMP280;52034;51.926;6.320;2024-01-15T01:02:53;100004.63;;;2.33
58102;BMP280;52034;51.926;6.320;2024-01-15T01:03:55;100013.19;;;2.37
58102;BMP280;52034;51.926;6.320;2024-01-15T01:04:57;100009.78;;;2.38
58102;BMP280;52034;51.926;6.320;2024-01-15T01:05:58;100006.44;;;2.40
58102;BMP280;52034;51.926;6.320;2024-01-15T01:07:00;100011.03;;;2.35
58102;BMP280;52034;51.926;6.320;2024-01-15T01:08:01;100006.19;;;2.36
58102;BMP280;52034;51.926;6.320;2024-01-15T01:09:03;100005.34;;;2.33
58102;BMP280;52034;51.926;6.320;2024-01-15T01:10:05;99994.41;;;2.35
58102;BMP280;52034;51.926;6.320;2024-01-15T01:11:12;100003.41;;;2.36
58102;BMP280;52034;51.926;6.320;2024-01-15T01:12:14;99998.47;;;2.34
58102;BMP280;52034;51.926;6.320;2024-01-15T01:13:16;100003.31;;;2.34
58102;BMP280;52034;51.926;6.320;2024-01-15T01:14:18;99991.97;;;2.30
58102;BMP280;52034;51.926;6.320;2024-01-15T01:15:19;99989.81;;;2.28
58102;BMP280;52034;51.926;6.320;2024-01-15T01:16:21;99998.63;;;2.25
58102;BMP280;52034;51.926;6.320;2024-01-15T01:17:23;99993.44;;;2.31
58102;BMP280;52034;51.926;6.320;2024-01-15T01:18:25;99999.81;;;2.33
58102;BMP280;52034;51.926;6.320;2024-01-15T01:19:26;99998.38;;;2.32
58102;BMP280;52034;51.926;6.320;2024-01-15T01:20:28;99999.06;;;2.33
58102;BMP280;52034;51.926;6.320;2024-01-15T01:21:30;99982.34;;;2.31
58102;BMP280;52034;51.926;6.320;2024-01-15T01:22:32;99989.47;;;2.34
58102;BMP280;52034;51.926;6.320;2024-01-15T01:23:34;99982.47;;;2.33
58102;BMP280;52034;51.926;6.320;2024-01-15T01:24:35;99985.97;;;2.33
58102;BMP280;52034;51.926;6.320;2024-01-15T01:25:37;99990.78;;;2.33
58102;BMP280;52034;51.926;6.320;2024-01-15T01:26:38;99983.44;;;2.26
58102;BMP280;52034;51.926;6.320;2024-01-15T01:27:40;99981.88;;;2.23
58102;BMP280;52034;51.926;6.320;2024-01-15T01:28:41;99983.94;;;2.22
58102;BMP280;52034;51.926;6.320;2024-01-15T01:29:43;99981.78;;;2.21
58102;BMP280;52034;51.926;6.320;2024-01-15T01:30:45;99984.66;;;2.23
58102;BMP280;52034;51.926;6.320;2024-01-15T01:31:46;99975.97;;;2.17
58102;BMP280;52034;51.926;6.320;2024-01-15T01:32:48;99983.09;;;2.20
58102;BMP280;52034;51.926;6.320;2024-01-15T01:33:50;99979.25;;;2.25
58102;BMP280;52034;51.926;6.320;2024-01-15T01:34:52;99981.19;;;2.22
58102;BMP280;52034;51.926;6.320;2024-01-15T01:35:53;99985.00;;;2.17
58102;BMP280;52034;51.926;6.320;2024-01-15T01:36:55;99980.06;;;2.16
58102;BMP280;52034;51.926;6.320;2024-01-15T01:37:57;99976.56;;;2.15
58102;BMP280;52034;51.926;6.320;2024-01-15T01:38:58;99986.44;;;2.18
58102;BMP280;52034;51.926;6.320;2024-01-15T01:40:00;99987.06;;;2.17
58102;BMP280;52034;51.926;6.320;2024-01-15T01:41:01;99981.66;;;2.19
58102;BMP280;52034;51.926;6.320;2024-01-15T01:42:03;99990.56;;;2.17
58102;BMP280;52034;51.926;6.320;2024-01-15T01:43:05;99980.69;;;2.14
58102;BMP280;52034;51.926;6.320;2024-01-15T01:44:07;99987.06;;;2.17
58102;BMP280;52034;51.926;6.320;2024-01-15T01:45:09;99989.34;;;2.20
58102;BMP280;52034;51.926;6.320;2024-01-15T01:46:11;99980.91;;;2.18
58102;BMP280;52034;51.926;6.320;2024-01-15T01:47:14;99979.59;;;2.19
58102;BMP280;52034;51.926;6.320;2024-01-15T01:48:16;99990.94;;;2.23
58102;BMP280;52034;51.926;6.320;2024-01-15T01:49:17;99988.75;;;2.22
58102;BMP280;52034;51.926;6.320;2024-01-15T01:50:19;99982.47;;;2.21
58102;BMP280;52034;51.926;6.320;2024-01-15T01:51:24;99991.38;;;2.20
58102;BMP280;52034;51.926;6.320;2024-01-15T01:52:26;99998.72;;;2.15
58102;BMP280;52034;51.926;6.320;2024-01-15T01:53:28;99991.16;;;2.16
58102;BMP280;52034;51.926;6.320;2024-01-15T01:54:32;99999.69;;;2.20
58102;BMP280;52034;51.926;6.320;2024-01-15T01:55:34;99987.66;;;2.15
58102;BMP280;52034;51.926;6.320;2024-01-15T01:56:36;99982.97;;;2.18
58102;BMP280;52034;51.926;6.320;2024-01-15T01:57:38;99991.38;;;2.20
58102;BMP280;52034;51.926;6.320;2024-01-15T01:58:40;100001.25;;;2.23
58102;BMP280;52034;51.926;6.320;2024-01-15T01:59:42;99997.91;;;2.24
58102;BMP280;52034;51.926;6.320;2024-01-15T02:00:43;99999.81;;;2.22
58102;BMP280;52034;51.926;6.320;2024-01-15T02:01:46;100002.59;;;2.22
58102;BMP280;52034;51.926;6.320;2024-01-15T02:02:47;99999.69;;;2.20
58102;BMP280;52034;51.926;6.320;2024-01-15T02:03:49;99998.25;;;2.19
58102;BMP280;52034;51.926;6.320;2024-01-15T02:04:50;99999.44;;;2.16
58102;BMP280;52034;51.926;6.320;2024-01-15T02:05:53;100006.56;;;2.19
58102;BMP280;52034;51.926;6.320;2024-01-15T02:06:55;100003.31;;;2.22
58102;BMP280;52034;51.926;6.320;2024-01-15T02:07:57;100005.97;;;2.20
58102;BMP280;52034;51.926;6.320;2024-01-15T02:08:59;100006.56;;;2.19
58102;BMP280;52034;51.926;6.320;2024-01-15T02:10:00;100000.19;;;2.16
58102;BMP280;52034;51.926;6.320;2024-01-15T02:11:02;100008.88;;;2.22
58102;BMP280;52034;51.926;6.320;2024-01-15T02:12:03;100006.56;;;2.19
58102;BMP280;52034;51.926;6.320;2024-01-15T02:13:05;99997.19;;;2.12
58102;BMP280;52034;51.926;6.320;2024-01-15T02:14:07;99995.72;;;2.11
58102;BMP280;52034;51.926;6.320;2024-01-15T02:15:10;99993.44;;;2.08
58102;BMP280;52034;51.926;6.320;2024-01-15T02:16:12;99991.50;;;2.10
58102;BMP280;52034;51.926;6.320;2024-01-15T02:17:14;99997.19;;;2.12
58102;BMP280;52034;51.926;6.320;2024-01-15T02:18:15;99989.94;;;2.07
58102;BMP280;52034;51.926;6.320;2024-01-15T02:19:17;99992.94;;;2.11
58102;BMP280;52034;51.926;6.320;2024-01-15T02:20:20;99997.88;;;2.13
58102;BMP280;52034;51.926;6.320;2024-01-15T02:21:21;99989.56;;;2.13
58102;BMP280;52034;51.926;6.320;2024-01-15T02:22:23;99988.97;;;2.14
58102;BMP280;52034;51.926;6.320;2024-01-15T02:23:24;99990.31;;;2.13
58102;BMP280;52034;51.926;6.320;2024-01-15T02:24:26;99989.47;;;2.11
58102;BMP280;52034;51.926;6.320;2024-01-15T02:25:28;99990.41;;;2.15
58102;BMP280;52034;51.926;6.320;2024-01-15T02:26:29;99986.94;;;2.15
58102;BMP280;52034;51.926;6.320;2024-01-15T02:27:31;99982.00;;;2.13
58102;BMP280;52034;51.926;6.320;2024-01-15T02:28:33;99983.34;;;2.12
58102;BMP280;52034;51.926;6.320;2024-01-15T02:29:35;99979.00;;;2.09
58102;BMP280;52034;51.926;6.320;2024-01-15T02:30:38;99980.69;;;2.14
58102;BMP280;52034;51.926;6.320;2024-01-15T02:31:43;99993.91;;;2.16
58102;BMP280;52034;51.926;6.320;2024-01-15T02:32:45;99982.00;;;2.13
58102;BMP280;52034;51.926;6.320;2024-01-15T02:33:47;99986.22;;;2.14
58102;BMP280;52034;51.926;6.320;2024-01-15T02:34:49;99991.28;;;2.18
58102;BMP280;52034;51.926;6.320;2024-01-15T02:35:51;99989.13;;;2.16
58102;BMP280;52034;51.926;6.320;2024-01-15T02:36:52;99988.97;;;2.14
58102;BMP280;52034;51.926;6.320;2024-01-15T02:37:54;99979.47;;;2.06
58102;BMP280;52034;51.926;6.320;2024-01-15T02:38:55;99989.94;;;2.07
58102;BMP280;52034;51.926;6.320;2024-01-15T02:39:57;99981.38;;;2.03
58102;BMP280;52034;51.926;6.320;2024-01-15T02:40:59;99992.84;;;2.09
58102;BMP280;52034;51.926;6.320;2024-01-15T02:42:00;99993.44;;;2.08
58102;BMP280;52034;51.926;6.320;2024-01-15T02:43:02;99982.97;;;2.06
58102;BMP280;52034;51.926;6.320;2024-01-15T02:44:03;99992.84;;;2.09
58102;BMP280;52034;51.926;6.320;2024-01-15T02:45:05;99983.81;;;2.09
58102;BMP280;52034;51.926;6.320;2024-01-15T02:46:07;99985.25;;;2.10
58102;BMP280;52034;51.926;6.320;2024-01-15T02:47:08;99983.94;;;2.11
58102;BMP280;52034;51.926;6.320;2024-01-15T02:48:10;99989.13;;;2.16
58102;BMP280;52034;51.926;6.320;2024-01-15T02:49:12;99979.94;;;2.14
58102;BMP280;52034;51.926;6.320;2024-01-15T02:50:13;99980.06;;;2.16
58102;BMP280;52034;51.926;6.320;2024-01-15T02:51:15;99980.31;;;2.08
58102;BMP280;52034;51.926;6.320;2024-01-15T02:52:17;99982.47;;;2.10
58102;BMP280;52034;51.926;6.320;2024-01-15T02:53:19;99982.09;;;2.04
58102;BMP280;52034;51.926;6.320;2024-01-15T02:54:20;99981.63;;;2.07
58102;BMP280;52034;51.926;6.320;2024-01-15T02:55:22;99979.59;;;2.08
58102;BMP280;52034;51.926;6.320;2024-01-15T02:56:24;99992.47;;;2.15
58102;BMP280;52034;51.926;6.320;2024-01-15T02:57:25;99995.97;;;2.15
58102;BMP280;52034;51.926;6.320;2024-01-15T02:58:27;99986.81;;;2.13
58102;BMP280;52034;51.926;6.320;2024-01-15T02:59:28;99991.50;;;2.10
58102;BMP280;52034;51.926;6.320;2024-01-15T03:00:30;99995.13;;;2.13
58102;BMP280;52034;51.926;6.320;2024-01-15T03:01:32;99993.69;;;2.12
58102;BMP280;52034;51.926;6.320;2024-01-15T03:02:36;99995.25;;;2.15
58102;BMP280;52034;51.926;6.320;2024-01-15T03:03:41;99994.50;;;2.14
58102;BMP280;52034;51.926;6.320;2024-01-15T03:04:43;99986.69;;;2.11
58102;BMP280;52034;51.926;6.320;2024-01-15T03:05:45;99986.31;;;2.05
58102;BMP280;52034;51.926;6.320;2024-01-15T03:06:46;99980.19;;;2.06
58102;BMP280;52034;51.926;6.320;2024-01-15T03:07:48;99983.81;;;2.09
58102;BMP280;52034;51.926;6.320;2024-01-15T03:08:50;99987.16;;;2.07
58102;BMP280;52034;51.926;6.320;2024-01-15T03:09:51;99989.47;;;2.11
58102;BMP280;52034;51.926;6.320;2024-01-15T03:10:53;99989.34;;;2.09
58102;BMP280;52034;51.926;6.320;2024-01-15T03:11:54;99998.47;;;2.11
58102;BMP280;52034;51.926;6.320;2024-01-15T03:12:57;99996.31;;;2.10
58102;BMP280;52034;51.926;6.320;2024-01-15T03:13:58;99997.03;;;2.10
58102;BMP280;52034;51.926;6.320;2024-01-15T03:15:00;99999.22;;;2.12
58102;BMP280;52034;51.926;6.320;2024-01-15T03:16:01;99994.88;;;2.09
58102;BMP280;52034;51.926;6.320;2024-01-15T03:17:04;99996.91;;;2.08
58102;BMP280;52034;51.926;6.320;2024-01-15T03:18:05;99998.25;;;2.07
58102;BMP280;52034;51.926;6.320;2024-01-15T03:19:07;99989.56;;;2.01
58102;BMP280;52034;51.926;6.320;2024-01-15T03:20:09;99995.13;;;2.13
58102;BMP280;52034;51.926;6.320;2024-01-15T03:21:11;100005.97;;;2.20
58102;BMP280;52034;51.926;6.320;2024-01-15T03:22:13;99992.13;;;2.20
58102;BMP280;52034;51.926;6.320;2024-01-15T03:23:14;99995.88;;;2.25
58102;BMP280;52034;51.926;6.320;2024-01-15T03:24:16;99999.34;;;2.25
58102;BMP280;52034;51.926;6.320;2024-01-15T03:25:17;100000.06;;;2.26
58102;BMP280;52034;51.926;6.320;2024-01-15T03:26:19;99986.59;;;2.20
58102;BMP280;52034;51.926;6.320;2024-01-15T03:27:20;99993.44;;;2.19
58102;BMP280;52034;51.926;6.320;2024-01-15T03:28:22;99989.22;;;2.18
58102;BMP280;52034;51.926;6.320;2024-01-15T03:29:24;99986.44;;;2.18
58102;BMP280;52034;51.926;6.320;2024-01-15T03:30:25;99987.78;;;2.17
58102;BMP280;52034;51.926;6.320;2024-01-15T03:31:27;99975.63;;;2.11
58102;BMP280;52034;51.926;6.320;2024-01-15T03:32:29;99982.13;;;2.15
58102;BMP280;52034;51.926;6.320;2024-01-15T03:33:30;99985.16;;;2.19
58102;BMP280;52034;51.926;6.320;2024-01-15T03:34:32;99982.13;;;2.15
58102;BMP280;52034;51.926;6.320;2024-01-15T03:35:34;99984.41;;;2.19
58102;BMP280;52034;51.926;6.320;2024-01-15T03:36:36;99994.66;;;2.16
58102;BMP280;52034;51.926;6.320;2024-01-15T03:37:37;99986.34;;;2.16
58102;BMP280;52034;51.926;6.320;2024-01-15T03:38:42;99982.84;;;2.16
58102;BMP280;52034;51.926;6.320;2024-01-15T03:39:43;99986.94;;;2.15
58102;BMP280;52034;51.926;6.320;2024-01-15T03:40:45;99977.81;;;2.12
58102;BMP280;52034;51.926;6.320;2024-01-15T03:41:48;99974.66;;;2.06
58102;BMP280;52034;51.926;6.320;2024-01-15T03:42:49;99980.56;;;2.12
58102;BMP280;52034;51.926;6.320;2024-01-15T03:43:51;99978.88;;;2.07
58102;BMP280;52034;51.926;6.320;2024-01-15T03:44:53;99976.84;;;2.08
58102;BMP280;52034;51.926;6.320;2024-01-15T03:45:54;99977.16;;;2.14
58102;BMP280;52034;51.926;6.320;2024-01-15T03:46:56;99979.84;;;2.12
58102;BMP280;52034;51.926;6.320;2024-01-15T03:47:59;99979.59;;;2.08
58102;BMP280;52034;51.926;6.320;2024-01-15T03:49:01;99990.66;;;2.08
58102;BMP280;52034;51.926;6.320;2024-01-15T03:50:02;99980.78;;;2.05
58102;BMP280;52034;51.926;6.320;2024-01-15T03:51:04;99987.03;;;2.05
58102;BMP280;52034;51.926;6.320;2024-01-15T03:52:06;99980.91;;;2.07
58102;BMP280;52034;51.926;6.320;2024-01-15T03:53:08;99985.13;;;2.08
58102;BMP280;52034;51.926;6.320;2024-01-15T03:54:09;99975.25;;;2.05
58102;BMP280;52034;51.926;6.320;2024-01-15T03:55:11;99971.63;;;2.02
58102;BMP280;52034;51.926;6.320;2024-01-15T03:56:13;99965.16;;;1.98
58102;BMP280;52034;51.926;6.320;2024-01-15T03:57:15;99967.56;;;2.03
58102;BMP280;52034;51.926;6.320;2024-01-15T03:58:16;99974.38;;;2.02
58102;BMP280;52034;51.926;6.320;2024-01-15T03:59:18;99956.56;;;1.94
58102;BMP280;52034;51.926;6.320;2024-01-15T04:00:20;99962.63;;;2.02
58102;BMP280;52034;51.926;6.320;2024-01-15T04:01:21;99961.41;;;2.05
58102;BMP280;52034;51.926;6.320;2024-01-15T04:02:23;99959.59;;;1.98
58102;BMP280;52034;51.926;6.320;2024-01-15T04:03:24;99964.06;;;2.03
58102;BMP280;52034;51.926;6.320;2024-01-15T04:04:26;99969.13;;;2.06
58102;BMP280;52034;51.926;6.320;2024-01-15T04:05:28;99961.03;;;1.99
58102;BMP280;52034;51.926;6.320;2024-01-15T04:06:29;99968.25;;;2.04
58102;BMP280;52034;51.926;6.320;2024-01-15T04:07:31;99953.56;;;2.01
58102;BMP280;52034;51.926;6.320;2024-01-15T04:08:33;99955.75;;;2.03
58102;BMP280;52034;51.926;6.320;2024-01-15T04:09:34;99964.44;;;2.09
58102;BMP280;52034;51.926;6.320;2024-01-15T04:10:36;99959.34;;;2.05
58102;BMP280;52034;51.926;6.320;2024-01-15T04:11:38;99953.22;;;2.07
58102;BMP280;52034;51.926;6.320;2024-01-15T04:12:39;99950.34;;;2.05
58102;BMP280;52034;51.926;6.320;2024-01-15T04:13:41;99950.34;;;2.05
58102;BMP280;52034;51.926;6.320;2024-01-15T04:14:43;99954.91;;;2.12
58102;BMP280;52034;51.926;6.320;2024-01-15T04:15:44;99946.00;;;2.13
58102;BMP280;52034;51.926;6.320;2024-01-15T04:16:46;99950.72;;;2.11
58102;BMP280;52034;51.926;6.320;2024-01-15T04:17:48;99941.09;;;2.12
58102;BMP280;52034;51.926;6.320;2024-01-15T04:18:49;99941.31;;;2.16
58102;BMP280;52034;51.926;6.320;2024-01-15T04:19:51;99953.13;;;2.16
58102;BMP280;52034;51.926;6.320;2024-01-15T04:20:53;99958.75;;;2.18
58102;BMP280;52034;51.926;6.320;2024-01-15T04:21:54;99948.88;;;2.15
58102;BMP280;52034;51.926;6.320;2024-01-15T04:22:56;99958.28;;;2.22
58102;BMP280;52034;51.926;6.320;2024-01-15T04:23:58;99952.53;;;2.18
58102;BMP280;52034;51.926;6.320;2024-01-15T04:24:59;99955.28;;;2.18
58102;BMP280;52034;51.926;6.320;2024-01-15T04:26:01;99954.69;;;2.19
58102;BMP280;52034;51.926;6.320;2024-01-15T04:27:02;99955.53;;;2.22
58102;BMP280;52034;51.926;6.320;2024-01-15T04:28:04;99955.13;;;2.27
58102;BMP280;52034;51.926;6.320;2024-01-15T04:29:06;99958.75;;;2.30
58102;BMP280;52034;51.926;6.320;2024-01-15T04:30:08;99958.88;;;2.32
58102;BMP280;52034;51.926;6.320;2024-01-15T04:31:20;99949.22;;;2.33
58102;BMP280;52034;51.926;6.320;2024-01-15T04:32:22;99943.09;;;2.34
58102;BMP280;52034;51.926;6.320;2024-01-15T04:33:24;99935.28;;;2.31
58102;BMP280;52034;51.926;6.320;2024-01-15T04:34:25;99949.13;;;2.31
58102;BMP280;52034;51.926;6.320;2024-01-15T04:35:27;99940.44;;;2.36
58102;BMP280;52034;51.926;6.320;2024-01-15T04:36:29;99934.31;;;2.38
58102;BMP280;52034;51.926;6.320;2024-01-15T04:37:30;99931.53;;;2.38
58102;BMP280;52034;51.926;6.320;2024-01-15T04:38:32;99944.19;;;2.41
58102;BMP280;52034;51.926;6.320;2024-01-15T04:39:34;99926.97;;;2.31
58102;BMP280;52034;51.926;6.320;2024-01-15T04:40:36;99937.09;;;2.38
58102;BMP280;52034;51.926;6.320;2024-01-15T04:41:37;99940.44;;;2.36
58102;BMP280;52034;51.926;6.320;2024-01-15T04:42:39;99938.41;;;2.37
58102;BMP280;52034;51.926;6.320;2024-01-15T04:43:41;99929.84;;;2.33
58102;BMP280;52034;51.926;6.320;2024-01-15T04:44:42;99941.78;;;2.35
58102;BMP280;52034;51.926;6.320;2024-01-15T04:45:44;99948.03;;;2.36
58102;BMP280;52034;51.926;6.320;2024-01-15T04:46:46;99945.16;;;2.34
58102;BMP280;52034;51.926;6.320;2024-01-15T04:47:47;99959.00;;;2.34
58102;BMP280;52034;51.926;6.320;2024-01-15T04:48:49;99944.91;;;2.30
58102;BMP280;52034;51.926;6.320;2024-01-15T04:49:51;99940.94;;;2.21
58102;BMP280;52034;51.926;6.320;2024-01-15T04:50:53;99943.25;;;2.25
58102;BMP280;52034;51.926;6.320;2024-01-15T04:51:54;99930.84;;;2.26
58102;BMP280;52034;51.926;6.320;2024-01-15T04:52:56;99932.03;;;2.23
58102;BMP280;52034;51.926;6.320;2024-01-15T04:53:57;99923.03;;;2.22
58102;BMP280;52034;51.926;6.320;2024-01-15T04:54:59;99925.66;;;2.20
58102;BMP280;52034;51.926;6.320;2024-01-15T04:56:00;99934.22;;;2.24
58102;BMP280;52034;51.926;6.320;2024-01-15T04:57:02;99920.97;;;2.23
58102;BMP280;52034;51.926;6.320;2024-01-15T04:58:04;99917.22;;;2.18
58102;BMP280;52034;51.926;6.320;2024-01-15T04:59:05;99920.88;;;2.21
58102;BMP280;52034;51.926;6.320;2024-01-15T05:00:07;99924.94;;;2.20
58102;BMP280;52034;51.926;6.320;2024-01-15T05:01:09;99933.38;;;2.22
58102;BMP280;52034;51.926;6.320;2024-01-15T05:02:11;99919.53;;;2.22
58102;BMP280;52034;51.926;6.320;2024-01-15T05:03:13;99926.41;;;2.21
58102;BMP280;52034;51.926;6.320;2024-01-15T05:04:15;99923.63;;;2.21
58102;BMP280;52034;51.926;6.320;2024-01-15T05:05:16;99921.81;;;2.14
58102;BMP280;52034;51.926;6.320;2024-01-15T05:06:18;99926.75;;;2.15
58102;BMP280;52034;51.926;6.320;2024-01-15T05:07:20;99921.56;;;2.10
58102;BMP280;52034;51.926;6.320;2024-01-15T05:08:21;99923.88;;;2.13
58102;BMP280;52034;51.926;6.320;2024-01-15T05:09:23;99927.34;;;2.14
58102;BMP280;52034;51.926;6.320;2024-01-15T05:10:24;99932.19;;;2.13
58102;BMP280;52034;51.926;6.320;2024-01-15T05:11:27;99919.78;;;2.14
58102;BMP280;52034;51.926;6.320;2024-01-15T05:12:28;99925.06;;;2.10
58102;BMP280;52034;51.926;6.320;2024-01-15T05:13:30;99924.47;;;2.12
58102;BMP280;52034;51.926;6.320;2024-01-15T05:14:31;99911.31;;;2.01
58102;BMP280;52034;51.926;6.320;2024-01-15T05:15:33;99925.53;;;2.07
58102;BMP280;52034;51.926;6.320;2024-01-15T05:16:35;99909.78;;;1.98
58102;BMP280;52034;51.926;6.320;2024-01-15T05:17:39;99914.72;;;1.99
58102;BMP280;52034;51.926;6.320;2024-01-15T05:18:41;99911.69;;;2.07
58102;BMP280;52034;51.926;6.320;2024-01-15T05:19:43;99906.28;;;1.97
58102;BMP280;52034;51.926;6.320;2024-01-15T05:20:44;99925.53;;;2.07
58102;BMP280;52034;51.926;6.320;2024-01-15T05:21:46;99919.03;;;2.02
58102;BMP280;52034;51.926;6.320;2024-01-15T05:22:48;99909.78;;;1.98
58102;BMP280;52034;51.926;6.320;2024-01-15T05:23:49;99913.25;;;1.98
58102;BMP280;52034;51.926;6.320;2024-01-15T05:24:51;99903.88;;;1.92
58102;BMP280;52034;51.926;6.320;2024-01-15T05:25:53;99905.78;;;2.01
58102;BMP280;52034;51.926;6.320;2024-01-15T05:26:55;99901.00;;;2.01
58102;BMP280;52034;51.926;6.320;2024-01-15T05:27:56;99906.75;;;2.05
58102;BMP280;52034;51.926;6.320;2024-01-15T05:28:58;99908.81;;;2.05
58102;BMP280;52034;51.926;6.320;2024-01-15T05:29:59;99901.00;;;2.01
58102;BMP280;52034;51.926;6.320;2024-01-15T05:31:01;99902.56;;;2.04
58102;BMP280;52034;51.926;6.320;2024-01-15T05:32:03;99903.28;;;2.05
58102;BMP280;52034;51.926;6.320;2024-01-15T05:33:05;99907.50;;;2.06
58102;BMP280;52034;51.926;6.320;2024-01-15T05:34:08;99901.81;;;2.04
58102;BMP280;52034;51.926;6.320;2024-01-15T05:35:11;99897.84;;;2.07
58102;BMP280;52034;51.926;6.320;2024-01-15T05:36:12;99904.00;;;2.05
58102;BMP280;52034;51.926;6.320;2024-01-15T05:37:14;99899.31;;;2.08
58102;BMP280;52034;51.926;6.320;2024-01-15T05:38:16;99896.88;;;2.02
58102;BMP280;52034;51.926;6.320;2024-01-15T05:39:17;99900.16;;;1.99
58102;BMP280;52034;51.926;6.320;2024-01-15T05:40:22;99888.84;;;1.95
58102;BMP280;52034;51.926;6.320;2024-01-15T05:41:24;99893.28;;;2.00
58102;BMP280;52034;51.926;6.320;2024-01-15T05:42:25;99884.75;;;1.96
58102;BMP280;52034;51.926;6.320;2024-01-15T05:43:28;99903.75;;;2.01
58102;BMP280;52034;51.926;6.320;2024-01-15T05:44:29;99909.91;;;2.00
58102;BMP280;52034;51.926;6.320;2024-01-15T05:45:31;99901.00;;;2.01
58102;BMP280;52034;51.926;6.320;2024-01-15T05:46:32;99903.03;;;2.01
58102;BMP280;52034;51.926;6.320;2024-01-15T05:47:34;99897.16;;;1.95
58102;BMP280;52034;51.926;6.320;2024-01-15T05:48:36;99909.91;;;2.00
58102;BMP280;52034;51.926;6.320;2024-01-15T05:49:38;99893.28;;;2.00
58102;BMP280;52034;51.926;6.320;2024-01-15T05:50:41;99892.69;;;2.01
58102;BMP280;52034;51.926;6.320;2024-01-15T05:51:43;99896.19;;;2.02
58102;BMP280;52034;51.926;6.320;2024-01-15T05:52:44;99895.59;;;2.03
58102;BMP280;52034;51.926;6.320;2024-01-15T05:53:46;99894.63;;;1.99
58102;BMP280;52034;51.926;6.320;2024-01-15T05:54:52;99913.50;;;2.02
58102;BMP280;52034;51.926;6.320;2024-01-15T05:55:54;99895.59;;;2.03
58102;BMP280;52034;51.926;6.320;2024-01-15T05:56:57;99892.81;;;2.03
58102;BMP280;52034;51.926;6.320;2024-01-15T05:57:58;99901.34;;;2.07
58102;BMP280;52034;51.926;6.320;2024-01-15T05:59:00;99896.56;;;2.08
58102;BMP280;52034;51.926;6.320;2024-01-15T06:00:04;99905.81;;;2.12